Hay River, Hay River Merlyn Carter Airport (CYHY)

NameHay River Merlyn Carter Airport
CityHay River
CountryCanada
ICAOCYHY
IATAYHY
Altitude165 m
CoordinatesGoogle Map
Live Air TrafficLiveATC.net
METARCYHY 130500Z 29008KT 15SM FEW090 SCT230 M12/M14 A2929 RMK AC2CI2 SLP933
2018-12-13 05:00:00 Wind: West (290°) 4.12 m/s - Visibility: 24140.1 m - Temperature: -12 °C - Dew point: -14 °C - Humidity: 85.2% - Pressure: 991.87 hPa

Sorry, no flights used the airport in this database.